Time;durP1;ratioP1;P1;durP2;ratioP2;P2;SDS_P1;SDS_P2;PMS_P1;PMS_P2;Temp;Humidity;BMP_temperature;BMP_pressure;BME280_temperature;BME280_humidity;BME280_pressure;Samples;Min_cycle;Max_cycle;Signal;HPM_P1;HPM_P2
2024/01/09 00:00:23;;;;;;;6.87;2.93;;;-3.00;99.90;;;;;;5117162;27;20084;-82
2024/01/09 00:02:48;;;;;;;10.20;3.97;;;-3.00;99.90;;;;;;5085791;28;20036;-80
2024/01/09 00:05:14;;;;;;;6.30;3.47;;;-3.00;99.90;;;;;;5116896;27;20433;-82
2024/01/09 00:07:40;;;;;;;5.37;3.03;;;-3.00;99.90;;;;;;5115692;27;20123;-81
2024/01/09 00:10:07;;;;;;;6.67;3.43;;;-3.00;99.90;;;;;;5115612;27;20672;-81
2024/01/09 00:12:33;;;;;;;5.13;3.30;;;-3.10;99.90;;;;;;5134235;27;20039;-81
2024/01/09 00:14:58;;;;;;;6.97;3.37;;;-3.10;99.90;;;;;;5115115;27;20042;-80
2024/01/09 00:17:24;;;;;;;7.53;3.30;;;-3.10;99.90;;;;;;5115826;27;20157;-81
2024/01/09 00:19:50;;;;;;;5.80;3.67;;;-3.10;99.90;;;;;;5115508;27;20034;-81
2024/01/09 00:22:15;;;;;;;6.07;3.53;;;-3.20;99.90;;;;;;5115522;27;20035;-81
2024/01/09 00:24:41;;;;;;;6.57;3.57;;;-3.20;99.90;;;;;;5115056;27;20468;-81
2024/01/09 00:27:06;;;;;;;5.57;3.40;;;-3.20;99.90;;;;;;5104520;28;20043;-81
2024/01/09 00:29:34;;;;;;;6.33;3.40;;;-3.20;99.90;;;;;;5109130;27;20397;-81
2024/01/09 00:32:00;;;;;;;7.40;3.53;;;-3.10;99.90;;;;;;5114559;27;20081;-81
2024/01/09 00:34:26;;;;;;;8.53;3.80;;;-3.10;99.90;;;;;;5115017;28;20123;-82
2024/01/09 00:36:51;;;;;;;6.83;3.40;;;-3.20;99.90;;;;;;5115268;28;20035;-81
2024/01/09 00:39:17;;;;;;;6.23;3.00;;;-3.20;99.90;;;;;;5133677;28;20093;-81
2024/01/09 00:41:42;;;;;;;6.23;3.37;;;-3.30;99.90;;;;;;5102847;28;20078;-82
2024/01/09 00:44:08;;;;;;;5.73;3.70;;;-3.30;99.90;;;;;;5094044;28;20039;-82
2024/01/09 00:46:34;;;;;;;4.83;3.00;;;-3.20;99.90;;;;;;5117032;27;20043;-82
2024/01/09 00:48:59;;;;;;;6.07;3.50;;;-3.30;99.90;;;;;;5102066;27;20035;-82
2024/01/09 00:51:25;;;;;;;6.80;3.67;;;-3.30;99.90;;;;;;5119569;27;20038;-81
2024/01/09 00:53:51;;;;;;;5.43;3.37;;;-3.30;99.90;;;;;;5118683;27;20207;-82
2024/01/09 00:56:17;;;;;;;6.40;3.50;;;-3.30;99.90;;;;;;5109574;27;20031;-82
2024/01/09 00:58:42;;;;;;;8.00;3.53;;;-3.30;99.90;;;;;;5119654;27;20025;-82
2024/01/09 01:01:09;;;;;;;6.03;3.43;;;-3.40;99.90;;;;;;5118906;27;20031;-82
2024/01/09 01:03:34;;;;;;;5.57;3.40;;;-3.40;99.90;;;;;;5118759;27;20028;-82
2024/01/09 01:06:00;;;;;;;5.83;3.37;;;-3.40;99.90;;;;;;5101708;27;20571;-82
2024/01/09 01:08:25;;;;;;;5.07;3.37;;;-3.40;99.90;;;;;;5137338;27;20069;-80
2024/01/09 01:10:52;;;;;;;6.40;3.30;;;-3.40;99.90;;;;;;5118067;27;20487;-82
2024/01/09 01:13:17;;;;;;;8.10;3.60;;;-3.40;99.90;;;;;;5136014;27;20513;-81
2024/01/09 01:15:43;;;;;;;5.23;3.53;;;-3.40;99.90;;;;;;5117629;27;20035;-82
2024/01/09 01:18:08;;;;;;;4.93;3.27;;;-3.40;99.90;;;;;;5117789;27;20080;-82
2024/01/09 01:20:34;;;;;;;7.90;3.80;;;-3.50;99.90;;;;;;5135656;27;20027;-82
2024/01/09 01:23:00;;;;;;;8.27;3.43;;;-3.50;99.90;;;;;;5136471;27;20063;-82
2024/01/09 01:25:25;;;;;;;5.40;3.30;;;-3.50;99.90;;;;;;5117344;27;20109;-82
2024/01/09 01:27:51;;;;;;;7.00;3.60;;;-3.50;99.90;;;;;;5135738;27;20031;-82
2024/01/09 01:30:16;;;;;;;6.07;3.47;;;-3.60;99.90;;;;;;5127796;27;20059;-82
2024/01/09 01:32:42;;;;;;;5.70;3.33;;;-3.50;99.90;;;;;;5117267;27;20562;-82
2024/01/09 01:35:08;;;;;;;5.77;3.47;;;-3.50;99.90;;;;;;5099959;27;20031;-82
2024/01/09 01:37:33;;;;;;;6.53;3.77;;;-3.60;99.90;;;;;;5116757;27;20115;-83
2024/01/09 01:39:59;;;;;;;6.93;3.43;;;-3.60;99.90;;;;;;5117085;27;20039;-83
2024/01/09 01:42:24;;;;;;;6.80;3.60;;;-3.60;99.90;;;;;;5117039;27;20042;-83
2024/01/09 01:44:50;;;;;;;5.87;3.87;;;-3.60;99.90;;;;;;5116577;27;20046;-79
2024/01/09 01:47:17;;;;;;;7.83;4.00;;;-3.60;99.90;;;;;;5116972;27;20077;-82
2024/01/09 01:49:43;;;;;;;6.07;3.60;;;-3.60;99.90;;;;;;5135545;27;20130;-82
2024/01/09 01:52:11;;;;;;;6.97;3.60;;;-3.60;99.90;;;;;;5116225;27;20527;-82
2024/01/09 01:54:37;;;;;;;6.70;3.80;;;-3.60;99.90;;;;;;5116457;27;20039;-82
2024/01/09 01:57:05;;;;;;;6.53;3.43;;;-3.70;99.90;;;;;;5115688;28;20068;-82
2024/01/09 01:59:34;;;;;;;8.07;3.50;;;-3.70;99.90;;;;;;5099554;27;20375;-83
2024/01/09 02:02:03;;;;;;;7.77;3.43;;;-3.70;99.90;;;;;;5116377;27;20046;-82
2024/01/09 02:04:29;;;;;;;6.47;3.47;;;-3.70;99.90;;;;;;5113960;28;20047;-82
2024/01/09 02:06:55;;;;;;;7.43;3.80;;;-3.70;99.90;;;;;;5112768;27;20038;-83
2024/01/09 02:09:21;;;;;;;5.57;3.30;;;-3.70;99.90;;;;;;5134903;27;20123;-82
2024/01/09 02:11:49;;;;;;;6.30;3.30;;;-3.70;99.90;;;;;;5082986;27;20054;-82
2024/01/09 02:14:15;;;;;;;5.73;3.23;;;-3.70;99.90;;;;;;5115630;27;20042;-82
2024/01/09 02:16:40;;;;;;;6.47;3.70;;;-3.80;99.90;;;;;;5098882;27;20043;-83
2024/01/09 02:19:06;;;;;;;6.33;3.40;;;-3.80;99.90;;;;;;5115873;27;20036;-83
2024/01/09 02:21:33;;;;;;;7.90;3.23;;;-3.80;99.90;;;;;;5115717;27;20205;-83
2024/01/09 02:23:58;;;;;;;6.37;3.60;;;-3.80;99.90;;;;;;5114958;27;20035;-83
2024/01/09 02:26:30;;;;;;;5.63;3.33;;;-3.80;99.90;;;;;;5098329;27;20035;-82
2024/01/09 02:29:01;;;;;;;6.10;3.10;;;-3.80;99.90;;;;;;5133947;27;20406;-82
2024/01/09 02:31:27;;;;;;;6.10;3.50;;;-3.80;99.90;;;;;;5115101;27;20302;-83
2024/01/09 02:33:53;;;;;;;5.37;3.40;;;-3.90;99.90;;;;;;5105583;27;20043;-83
2024/01/09 02:36:18;;;;;;;7.93;3.77;;;-3.80;99.90;;;;;;5102867;28;20096;-82
2024/01/09 02:38:44;;;;;;;7.13;3.80;;;-3.80;99.90;;;;;;5115338;27;20033;-83
2024/01/09 02:41:10;;;;;;;6.50;3.47;;;-3.80;99.90;;;;;;5098029;27;20061;-83
2024/01/09 02:43:35;;;;;;;6.73;3.70;;;-3.80;99.90;;;;;;5098231;27;20071;-83
2024/01/09 02:46:01;;;;;;;6.20;3.13;;;-3.80;99.90;;;;;;5098100;27;20066;-83
2024/01/09 02:48:26;;;;;;;7.00;3.63;;;-3.90;99.90;;;;;;5115451;27;20560;-83
2024/01/09 02:50:52;;;;;;;6.97;3.70;;;-3.80;99.90;;;;;;5114493;27;20035;-82
2024/01/09 02:53:18;;;;;;;6.47;3.77;;;-3.90;99.90;;;;;;5114862;27;20027;-83
2024/01/09 02:55:43;;;;;;;8.30;3.67;;;-3.90;99.90;;;;;;5114732;27;20039;-83
2024/01/09 02:58:09;;;;;;;6.27;3.60;;;-3.90;99.90;;;;;;5114430;27;20164;-83
2024/01/09 03:00:34;;;;;;;7.07;3.80;;;-3.90;99.90;;;;;;5114910;27;20034;-82
2024/01/09 03:03:00;;;;;;;6.97;3.27;;;-3.90;99.90;;;;;;5114524;27;20118;-83
2024/01/09 03:05:26;;;;;;;5.00;3.23;;;-3.90;99.90;;;;;;5114630;27;20461;-83
2024/01/09 03:07:51;;;;;;;6.77;3.33;;;-3.90;99.90;;;;;;5114690;27;20440;-81
2024/01/09 03:10:17;;;;;;;6.13;3.20;;;-4.00;99.90;;;;;;5114423;27;20080;-83
2024/01/09 03:12:42;;;;;;;6.03;3.37;;;-3.90;99.90;;;;;;5097770;27;20034;-82
2024/01/09 03:15:09;;;;;;;6.03;3.80;;;-4.00;99.90;;;;;;5132819;27;20043;-83
2024/01/09 03:17:35;;;;;;;7.30;3.53;;;-4.00;99.90;;;;;;5097679;27;20502;-82
2024/01/09 03:20:01;;;;;;;5.47;3.10;;;-4.00;99.90;;;;;;5097245;27;20179;-82
2024/01/09 03:22:26;;;;;;;6.27;3.73;;;-4.00;99.90;;;;;;5096930;27;20037;-83
2024/01/09 03:24:52;;;;;;;5.23;3.10;;;-4.00;99.90;;;;;;5114202;27;20117;-82
2024/01/09 03:27:17;;;;;;;5.60;3.57;;;-4.00;99.90;;;;;;5133094;27;20074;-83
2024/01/09 03:29:43;;;;;;;5.47;3.50;;;-4.00;99.90;;;;;;5114326;27;20125;-83
2024/01/09 03:32:09;;;;;;;6.10;3.30;;;-4.00;99.90;;;;;;5097371;27;20543;-82
2024/01/09 03:34:34;;;;;;;5.73;3.30;;;-4.10;99.90;;;;;;5114153;27;20517;-83
2024/01/09 03:37:00;;;;;;;5.53;3.60;;;-4.10;99.90;;;;;;5131738;27;20039;-82
2024/01/09 03:39:25;;;;;;;6.90;3.80;;;-4.10;99.90;;;;;;5114247;27;20118;-82
2024/01/09 03:41:52;;;;;;;6.23;3.53;;;-4.10;99.90;;;;;;5096877;27;20512;-83
2024/01/09 03:44:18;;;;;;;5.27;3.43;;;-4.10;99.90;;;;;;5087406;27;20391;-83
2024/01/09 03:46:43;;;;;;;6.53;3.57;;;-4.20;99.90;;;;;;5113935;27;20043;-82
2024/01/09 03:49:09;;;;;;;5.30;3.40;;;-4.20;99.90;;;;;;5113592;27;20039;-83
2024/01/09 03:51:35;;;;;;;5.83;3.30;;;-4.20;99.90;;;;;;5113698;27;20126;-82
2024/01/09 03:54:00;;;;;;;6.03;3.60;;;-4.20;99.90;;;;;;5113600;27;20035;-82
2024/01/09 03:56:26;;;;;;;10.33;3.97;;;-4.20;99.90;;;;;;5113646;27;20173;-82
2024/01/09 03:58:52;;;;;;;6.63;3.60;;;-4.20;99.90;;;;;;5113466;27;20058;-82
2024/01/09 04:01:18;;;;;;;6.67;4.00;;;-4.30;99.90;;;;;;5132307;27;20035;-82
2024/01/09 04:03:44;;;;;;;6.90;3.70;;;-4.30;99.90;;;;;;5113244;27;20068;-83
2024/01/09 04:06:09;;;;;;;5.87;3.87;;;-4.30;99.90;;;;;;5124296;27;20088;-82
2024/01/09 04:08:35;;;;;;;6.17;3.90;;;-4.30;99.90;;;;;;5132276;27;20031;-82
2024/01/09 04:11:04;;;;;;;6.27;3.57;;;-4.30;99.90;;;;;;5113354;27;20117;-81
2024/01/09 04:13:30;;;;;;;7.53;3.73;;;-4.30;99.90;;;;;;5096581;27;20494;-83
2024/01/09 04:15:56;;;;;;;7.17;3.63;;;-4.30;99.90;;;;;;5113391;27;20046;-82
2024/01/09 04:18:22;;;;;;;8.43;3.73;;;-4.30;99.90;;;;;;5113767;27;20031;-82
2024/01/09 04:20:48;;;;;;;6.63;3.43;;;-4.40;99.90;;;;;;5096955;27;20552;-82
2024/01/09 04:23:13;;;;;;;6.53;3.57;;;-4.40;99.90;;;;;;5131810;27;20106;-82
2024/01/09 04:25:39;;;;;;;6.23;3.57;;;-4.30;99.90;;;;;;5113862;28;20039;-82
2024/01/09 04:28:05;;;;;;;5.67;3.40;;;-4.40;99.90;;;;;;5113764;27;20054;-82
2024/01/09 04:30:30;;;;;;;6.43;3.83;;;-4.40;99.90;;;;;;5113841;28;20035;-83
2024/01/09 04:32:56;;;;;;;7.87;3.93;;;-4.40;99.90;;;;;;5131618;27;20035;-82
2024/01/09 04:35:22;;;;;;;6.97;3.57;;;-4.40;99.90;;;;;;5113344;28;20034;-82
2024/01/09 04:37:48;;;;;;;10.10;4.17;;;-4.40;99.90;;;;;;5113724;28;20375;-82
2024/01/09 04:40:13;;;;;;;6.53;3.60;;;-4.40;99.90;;;;;;5132298;28;20023;-82
2024/01/09 04:42:39;;;;;;;7.07;4.30;;;-4.40;99.90;;;;;;5096440;28;20083;-82
2024/01/09 04:45:05;;;;;;;6.70;3.63;;;-4.50;99.90;;;;;;5113661;28;20455;-82
2024/01/09 04:47:30;;;;;;;6.00;3.40;;;-4.50;99.90;;;;;;5132151;28;20027;-82
2024/01/09 04:49:56;;;;;;;5.80;3.67;;;-4.50;99.90;;;;;;5132450;28;20042;-82
2024/01/09 04:52:22;;;;;;;6.27;3.80;;;-4.50;99.90;;;;;;5113333;28;20038;-82
2024/01/09 04:54:47;;;;;;;6.57;3.80;;;-4.50;99.90;;;;;;5112870;28;20494;-81
2024/01/09 04:57:13;;;;;;;6.90;4.10;;;-4.50;99.90;;;;;;5131570;28;20035;-82
2024/01/09 04:59:41;;;;;;;5.93;3.87;;;-4.50;99.90;;;;;;5113667;28;20472;-82
2024/01/09 05:02:07;;;;;;;7.57;4.27;;;-4.50;99.90;;;;;;5109775;28;20032;-82
2024/01/09 05:04:32;;;;;;;7.17;3.93;;;-4.60;99.90;;;;;;5089065;28;20153;-82
2024/01/09 05:06:58;;;;;;;6.87;3.50;;;-4.60;99.90;;;;;;5113386;28;20035;-82
2024/01/09 05:09:24;;;;;;;7.03;3.80;;;-4.60;99.90;;;;;;5113216;28;20036;-81
2024/01/09 05:11:50;;;;;;;5.77;3.70;;;-4.60;99.90;;;;;;5114003;28;20043;-82
2024/01/09 05:14:16;;;;;;;6.43;4.17;;;-4.60;99.90;;;;;;5084594;28;20036;-82
2024/01/09 05:16:41;;;;;;;7.10;3.80;;;-4.60;99.90;;;;;;5108647;28;20039;-82
2024/01/09 05:19:07;;;;;;;6.10;3.70;;;-4.70;99.90;;;;;;5096612;28;20553;-82
2024/01/09 05:21:33;;;;;;;7.53;3.63;;;-4.70;99.90;;;;;;5113258;28;20502;-83
2024/01/09 05:23:58;;;;;;;6.43;3.77;;;-4.70;99.90;;;;;;5112809;28;20035;-83
2024/01/09 05:26:24;;;;;;;5.37;3.70;;;-4.70;99.90;;;;;;5095792;28;20053;-81
2024/01/09 05:28:50;;;;;;;6.93;4.17;;;-4.70;99.90;;;;;;5112979;28;20046;-82
2024/01/09 05:31:15;;;;;;;5.43;3.70;;;-4.70;99.90;;;;;;5131260;27;20119;-82
2024/01/09 05:33:41;;;;;;;4.57;3.33;;;-4.70;99.90;;;;;;5135021;27;20431;-82
2024/01/09 05:36:07;;;;;;;6.57;3.53;;;-4.70;99.90;;;;;;5116688;27;20043;-82
2024/01/09 05:38:33;;;;;;;8.70;4.17;;;-4.80;99.90;;;;;;5117338;27;20087;-81
2024/01/09 05:40:59;;;;;;;7.77;4.00;;;-4.70;99.90;;;;;;5135306;27;20482;-82
2024/01/09 05:43:24;;;;;;;6.73;4.47;;;-4.80;99.90;;;;;;5135239;27;20079;-81
2024/01/09 05:45:50;;;;;;;5.90;3.37;;;-4.80;99.90;;;;;;5134801;27;20077;-82
2024/01/09 05:48:16;;;;;;;8.07;3.60;;;-4.80;99.90;;;;;;5116855;27;20027;-82
2024/01/09 05:50:41;;;;;;;6.73;4.00;;;-4.80;99.90;;;;;;5117545;27;20494;-82
2024/01/09 05:53:08;;;;;;;5.53;3.77;;;-4.80;99.90;;;;;;5137127;27;20103;-82
2024/01/09 05:55:33;;;;;;;7.50;3.90;;;-4.80;99.90;;;;;;5094600;28;20027;-82
2024/01/09 05:57:59;;;;;;;8.17;4.20;;;-4.80;99.90;;;;;;5114416;27;20062;-82
2024/01/09 06:00:25;;;;;;;5.93;3.60;;;-4.80;99.90;;;;;;5135086;27;20353;-82
2024/01/09 06:02:51;;;;;;;8.37;4.13;;;-4.90;99.90;;;;;;5116672;27;20043;-82
2024/01/09 06:05:17;;;;;;;7.70;4.27;;;-4.90;99.90;;;;;;5116299;27;20038;-81
2024/01/09 06:07:43;;;;;;;6.27;3.97;;;-4.90;99.90;;;;;;5103630;28;20032;-82
2024/01/09 06:10:09;;;;;;;6.63;3.77;;;-4.90;99.90;;;;;;5107205;27;20394;-82
2024/01/09 06:12:34;;;;;;;5.80;3.50;;;-4.90;99.90;;;;;;5116496;27;20031;-82
2024/01/09 06:15:00;;;;;;;6.67;3.87;;;-4.90;99.90;;;;;;5098642;27;20042;-82
2024/01/09 06:17:26;;;;;;;8.73;4.07;;;-4.90;99.90;;;;;;5115559;27;20039;-82
2024/01/09 06:19:52;;;;;;;8.30;4.30;;;-4.90;99.90;;;;;;5134882;27;20067;-82
2024/01/09 06:22:18;;;;;;;6.67;4.23;;;-4.90;99.90;;;;;;5098694;27;20035;-82
2024/01/09 06:24:43;;;;;;;8.43;4.53;;;-5.00;99.90;;;;;;5116172;27;20043;-81
2024/01/09 06:27:09;;;;;;;6.20;3.90;;;-5.00;99.90;;;;;;5135084;27;20039;-81
2024/01/09 06:29:35;;;;;;;6.03;3.77;;;-4.90;99.90;;;;;;5115754;27;20109;-82
2024/01/09 06:32:00;;;;;;;7.27;3.90;;;-5.00;99.90;;;;;;5115667;27;20104;-82
2024/01/09 06:34:26;;;;;;;8.10;4.60;;;-5.00;99.90;;;;;;5115323;27;20031;-82
2024/01/09 06:36:52;;;;;;;8.80;4.17;;;-5.00;99.90;;;;;;5098341;27;20035;-82
2024/01/09 06:39:18;;;;;;;6.50;4.07;;;-5.00;99.90;;;;;;5126035;27;20111;-82
2024/01/09 06:41:44;;;;;;;6.50;4.00;;;-5.00;99.90;;;;;;5136111;27;20510;-84
2024/01/09 06:44:09;;;;;;;6.77;4.27;;;-5.00;99.90;;;;;;5133228;27;20027;-82
2024/01/09 06:46:35;;;;;;;8.27;4.13;;;-5.00;99.90;;;;;;5134484;27;20110;-82
2024/01/09 06:49:01;;;;;;;7.83;4.23;;;-5.00;99.90;;;;;;5106028;28;20062;-82
2024/01/09 06:51:28;;;;;;;8.07;4.30;;;-5.00;99.90;;;;;;5132517;27;20035;-82
2024/01/09 06:53:54;;;;;;;7.67;4.70;;;-5.00;99.90;;;;;;5098097;27;20085;-82
2024/01/09 06:56:20;;;;;;;7.67;4.10;;;-5.00;99.90;;;;;;5115384;27;20039;-82
2024/01/09 06:58:45;;;;;;;7.97;4.03;;;-5.00;99.90;;;;;;5098574;27;20035;-82
2024/01/09 07:01:12;;;;;;;7.57;4.50;;;-5.00;99.90;;;;;;5114951;27;20035;-82
2024/01/09 07:03:37;;;;;;;6.77;4.80;;;-5.00;99.90;;;;;;5115429;27;20035;-82
2024/01/09 07:06:04;;;;;;;7.57;4.53;;;-5.00;99.90;;;;;;5133273;27;20042;-82
2024/01/09 07:08:29;;;;;;;7.47;4.00;;;-5.00;99.90;;;;;;5116079;27;20062;-82
2024/01/09 07:10:56;;;;;;;6.50;4.10;;;-5.00;99.90;;;;;;5132245;27;20555;-82
2024/01/09 07:13:22;;;;;;;7.23;3.90;;;-5.10;99.90;;;;;;5098009;27;20031;-81
2024/01/09 07:15:48;;;;;;;7.37;4.07;;;-5.10;99.90;;;;;;5101991;28;20060;-81
2024/01/09 07:18:14;;;;;;;8.30;4.47;;;-5.10;99.90;;;;;;5105162;27;20039;-82
2024/01/09 07:20:39;;;;;;;7.17;4.37;;;-5.10;99.90;;;;;;5133067;27;20062;-82
2024/01/09 07:23:05;;;;;;;7.73;3.83;;;-5.10;99.90;;;;;;5114847;27;20491;-81
2024/01/09 07:25:31;;;;;;;7.80;4.27;;;-5.10;99.90;;;;;;5132761;27;20054;-82
2024/01/09 07:27:56;;;;;;;6.77;4.10;;;-5.10;99.90;;;;;;5114465;27;20043;-81
2024/01/09 07:30:22;;;;;;;7.17;4.23;;;-5.10;99.90;;;;;;5115152;27;20049;-81
2024/01/09 07:32:47;;;;;;;7.00;4.03;;;-5.10;99.90;;;;;;5114843;27;20481;-82
2024/01/09 07:35:13;;;;;;;7.13;4.30;;;-5.10;99.90;;;;;;5114836;27;20162;-82
2024/01/09 07:37:39;;;;;;;6.67;4.27;;;-5.10;99.90;;;;;;5134162;27;20038;-82
2024/01/09 07:40:05;;;;;;;6.57;3.83;;;-5.20;99.90;;;;;;5115285;27;20188;-82
2024/01/09 07:42:31;;;;;;;8.90;4.30;;;-5.10;99.90;;;;;;5116368;27;20039;-83
2024/01/09 07:44:57;;;;;;;8.63;4.40;;;-5.20;99.90;;;;;;5135268;27;20039;-83
2024/01/09 07:47:22;;;;;;;6.73;3.70;;;-5.20;99.90;;;;;;5103003;28;20417;-83
2024/01/09 07:49:48;;;;;;;8.73;4.70;;;-5.20;99.90;;;;;;5109186;27;20542;-83
2024/01/09 07:52:14;;;;;;;7.30;4.00;;;-5.10;99.90;;;;;;5098339;27;20558;-82
2024/01/09 07:54:42;;;;;;;7.83;4.13;;;-5.20;99.90;;;;;;5100515;27;20031;-83
2024/01/09 07:57:08;;;;;;;6.50;4.33;;;-5.10;99.90;;;;;;5117465;27;20085;-83
2024/01/09 07:59:33;;;;;;;5.57;3.90;;;-5.20;99.90;;;;;;5117636;27;20031;-83
2024/01/09 08:02:01;;;;;;;6.60;3.63;;;-5.20;99.90;;;;;;5100507;28;20503;-81
2024/01/09 08:04:27;;;;;;;7.30;4.33;;;-5.20;99.90;;;;;;5115775;27;20039;-82
2024/01/09 08:06:54;;;;;;;6.03;3.87;;;-5.20;99.90;;;;;;5117332;27;20039;-81
2024/01/09 08:09:20;;;;;;;6.93;4.53;;;-5.10;99.90;;;;;;5118267;27;20034;-82
2024/01/09 08:11:46;;;;;;;6.90;4.20;;;-5.20;99.90;;;;;;5116218;27;20043;-82
2024/01/09 08:14:13;;;;;;;6.83;3.80;;;-5.20;99.90;;;;;;5104806;28;20042;-82
2024/01/09 08:16:40;;;;;;;7.33;4.20;;;-5.20;99.90;;;;;;5101821;28;20035;-82
2024/01/09 08:19:09;;;;;;;6.57;3.93;;;-5.20;99.90;;;;;;5114157;27;20035;-82
2024/01/09 08:21:35;;;;;;;7.63;4.30;;;-5.20;99.90;;;;;;5134699;27;20027;-82
2024/01/09 08:24:02;;;;;;;7.77;4.13;;;-5.10;99.90;;;;;;5084923;28;20096;-82
2024/01/09 08:26:28;;;;;;;9.03;4.20;;;-5.10;99.90;;;;;;5103541;27;20035;-82
2024/01/09 08:28:54;;;;;;;7.73;4.23;;;-5.10;99.90;;;;;;5120528;27;20056;-82
2024/01/09 08:31:19;;;;;;;8.60;4.27;;;-5.10;99.90;;;;;;5095342;27;20118;-82
2024/01/09 08:33:45;;;;;;;8.63;4.30;;;-5.10;99.90;;;;;;5126344;27;20039;-83
2024/01/09 08:36:11;;;;;;;8.03;4.30;;;-5.00;99.90;;;;;;5106585;28;20051;-82
2024/01/09 08:38:37;;;;;;;7.07;4.30;;;-5.00;99.90;;;;;;5089414;28;20061;-82
2024/01/09 08:41:04;;;;;;;7.37;4.10;;;-5.00;99.90;;;;;;5085478;28;20043;-82
2024/01/09 08:43:29;;;;;;;8.07;4.10;;;-5.00;99.90;;;;;;5115005;27;20035;-81
2024/01/09 08:45:55;;;;;;;9.70;4.40;;;-5.00;99.90;;;;;;5114941;28;20103;-82
2024/01/09 08:48:21;;;;;;;6.00;4.10;;;-5.00;99.90;;;;;;5123205;27;20034;-81
2024/01/09 08:50:48;;;;;;;6.40;3.97;;;-4.90;99.90;;;;;;5120594;28;20035;-82
2024/01/09 08:53:13;;;;;;;6.17;3.90;;;-4.90;99.90;;;;;;5111681;28;20043;-82
2024/01/09 08:55:39;;;;;;;9.63;4.37;;;-4.90;99.90;;;;;;5098491;28;20096;-82
2024/01/09 08:58:05;;;;;;;7.80;4.57;;;-4.90;99.90;;;;;;5114001;28;20035;-82
2024/01/09 09:00:31;;;;;;;9.70;4.70;;;-4.80;99.90;;;;;;5136044;28;20034;-81
2024/01/09 09:02:56;;;;;;;9.07;4.20;;;-4.80;99.90;;;;;;5116475;28;20043;-82
2024/01/09 09:05:22;;;;;;;5.73;3.77;;;-4.70;99.90;;;;;;5131371;27;20051;-82
2024/01/09 09:07:47;;;;;;;7.30;4.07;;;-4.70;99.90;;;;;;5117653;27;20042;-82
2024/01/09 09:10:13;;;;;;;6.50;3.67;;;-4.60;99.90;;;;;;5119164;27;20736;-82
2024/01/09 09:12:39;;;;;;;6.63;3.60;;;-4.60;99.90;;;;;;5112395;27;20122;-81
2024/01/09 09:15:05;;;;;;;6.33;4.00;;;-4.50;99.90;;;;;;5119268;27;20443;-82
2024/01/09 09:17:31;;;;;;;6.77;3.83;;;-4.50;99.90;;;;;;5115578;28;20039;-81
2024/01/09 09:19:57;;;;;;;8.40;4.20;;;-4.50;99.90;;;;;;5102358;28;20063;-81
2024/01/09 09:22:25;;;;;;;7.43;4.47;;;-4.40;99.90;;;;;;5090767;27;20039;-82
2024/01/09 09:24:52;;;;;;;6.20;3.73;;;-4.40;99.90;;;;;;5103630;28;20046;-81
2024/01/09 09:27:18;;;;;;;6.33;4.10;;;-4.30;99.90;;;;;;5098198;28;20065;-82
2024/01/09 09:29:44;;;;;;;6.53;4.00;;;-4.30;99.90;;;;;;5117285;28;20172;-82
2024/01/09 09:32:10;;;;;;;7.27;3.67;;;-4.30;99.90;;;;;;5106426;28;20089;-81
2024/01/09 09:34:39;;;;;;;6.83;4.20;;;-4.20;99.90;;;;;;5097808;28;20114;-82
2024/01/09 09:37:05;;;;;;;7.80;4.73;;;-4.20;99.90;;;;;;5102227;28;20399;-82
2024/01/09 09:39:30;;;;;;;7.07;4.07;;;-4.20;99.90;;;;;;5116162;27;20036;-82
2024/01/09 09:41:59;;;;;;;6.47;4.00;;;-4.10;99.90;;;;;;5101601;28;20059;-82
2024/01/09 09:44:26;;;;;;;8.03;4.33;;;-4.10;99.90;;;;;;5111184;27;20422;-82
2024/01/09 09:46:52;;;;;;;7.33;4.40;;;-4.10;99.90;;;;;;5124759;27;20039;-82
2024/01/09 09:49:24;;;;;;;7.70;4.70;;;-4.10;99.90;;;;;;5097581;28;20031;-82
2024/01/09 09:51:51;;;;;;;7.37;4.30;;;-4.00;99.90;;;;;;5097673;28;20045;-81
2024/01/09 09:54:18;;;;;;;6.80;4.53;;;-4.00;99.90;;;;;;5095299;28;20050;-82
2024/01/09 09:56:47;;;;;;;5.63;4.00;;;-3.90;99.90;;;;;;5084803;28;20473;-81
2024/01/09 09:59:15;;;;;;;6.40;3.90;;;-3.80;99.90;;;;;;5098523;28;20470;-82
2024/01/09 10:01:43;;;;;;;5.40;3.80;;;-3.80;99.90;;;;;;5104438;28;20039;-81
2024/01/09 10:04:29;;;;;;;6.07;3.83;;;-3.70;99.90;;;;;;5101575;28;20286;-81
2024/01/09 10:06:56;;;;;;;6.97;3.90;;;-3.60;99.90;;;;;;5122382;27;20040;-81
2024/01/09 10:09:23;;;;;;;5.77;3.80;;;-3.60;99.90;;;;;;5108051;27;20102;-80
2024/01/09 10:11:49;;;;;;;7.83;4.03;;;-3.50;99.90;;;;;;5135437;27;20324;-81
2024/01/09 10:14:15;;;;;;;7.07;3.70;;;-3.40;99.90;;;;;;5116162;27;20089;-81
2024/01/09 10:16:55;;;;;;;6.20;3.53;;;-3.30;99.90;;;;;;5116006;27;20549;-80
2024/01/09 10:19:24;;;;;;;5.77;3.60;;;-3.30;99.90;;;;;;5120282;27;20108;-80
2024/01/09 10:21:50;;;;;;;4.87;3.50;;;-3.20;99.90;;;;;;5135763;27;20045;-80
2024/01/09 10:24:17;;;;;;;5.70;3.53;;;-3.20;99.90;;;;;;5117050;27;20043;-80
2024/01/09 10:26:43;;;;;;;5.73;3.63;;;-3.10;99.90;;;;;;5091617;27;20047;-80
2024/01/09 10:29:10;;;;;;;5.00;3.30;;;-3.10;99.90;;;;;;5118296;27;20494;-80
2024/01/09 10:31:36;;;;;;;6.60;3.30;;;-3.00;99.90;;;;;;5111574;28;20036;-80
2024/01/09 10:34:01;;;;;;;5.97;3.37;;;-3.00;99.90;;;;;;5117034;27;20096;-80
2024/01/09 10:36:27;;;;;;;8.73;3.60;;;-3.00;99.90;;;;;;5136836;27;20433;-81
2024/01/09 10:39:02;;;;;;;5.50;3.57;;;-2.90;99.90;;;;;;5118002;27;20031;-80
2024/01/09 10:41:28;;;;;;;6.13;3.20;;;-2.90;99.90;;;;;;5117637;27;20431;-81
2024/01/09 10:43:54;;;;;;;4.70;3.00;;;-2.80;99.90;;;;;;5117419;27;20035;-81
2024/01/09 10:46:24;;;;;;;8.33;3.27;;;-2.80;99.90;;;;;;5117264;27;20064;-81
2024/01/09 10:48:51;;;;;;;5.00;3.27;;;-2.70;99.90;;;;;;5117451;27;20445;-81
2024/01/09 10:51:18;;;;;;;6.13;3.13;;;-2.70;99.90;;;;;;5106807;27;20066;-80
2024/01/09 10:53:49;;;;;;;5.47;3.20;;;-2.60;99.90;;;;;;5121004;27;20050;-81
2024/01/09 10:56:16;;;;;;;5.33;3.23;;;-2.60;99.90;;;;;;5096559;28;20050;-81
2024/01/09 10:58:46;;;;;;;5.10;2.87;;;-2.50;99.90;;;;;;5101704;28;20047;-82
2024/01/09 11:01:13;;;;;;;4.47;2.80;;;-2.50;99.90;;;;;;5117679;28;20114;-81
2024/01/09 11:03:39;;;;;;;6.87;3.20;;;-2.40;99.90;;;;;;5115161;28;20102;-80
2024/01/09 11:06:07;;;;;;;4.37;2.70;;;-2.30;99.90;;;;;;5115395;28;20040;-80
2024/01/09 11:08:36;;;;;;;3.97;2.70;;;-2.20;99.90;;;;;;5115400;28;20372;-80
2024/01/09 11:11:12;;;;;;;4.50;2.80;;;-2.20;99.90;;;;;;5114698;28;20076;-80
2024/01/09 11:13:42;;;;;;;6.37;3.30;;;-2.10;99.90;;;;;;5096767;28;20036;-79
2024/01/09 11:16:10;;;;;;;4.47;2.80;;;-2.00;99.90;;;;;;5096912;28;20155;-79
2024/01/09 11:18:37;;;;;;;5.17;2.80;;;-1.90;99.90;;;;;;5096056;28;20449;-78
2024/01/09 11:21:03;;;;;;;4.40;2.87;;;-1.90;99.90;;;;;;5114505;28;20032;-78
2024/01/09 11:23:52;;;;;;;4.93;2.70;;;-1.80;99.90;;;;;;5096274;28;20096;-78
2024/01/09 11:26:19;;;;;;;4.93;2.53;;;-1.70;99.90;;;;;;5107723;28;20046;-80
2024/01/09 11:28:47;;;;;;;4.50;2.60;;;-1.60;99.90;;;;;;5108271;27;20075;-80
2024/01/09 11:31:17;;;;;;;5.37;3.50;;;-1.60;99.90;;;;;;5092273;27;20087;-80
2024/01/09 11:33:43;;;;;;;4.40;2.63;;;-1.50;99.90;;;;;;5124346;27;20035;-80
2024/01/09 11:36:11;;;;;;;4.37;2.50;;;-1.40;99.90;;;;;;5110695;27;20522;-81
2024/01/09 11:38:37;;;;;;;3.97;2.50;;;-1.40;99.90;;;;;;5106634;27;20040;-80
2024/01/09 11:41:04;;;;;;;3.83;2.87;;;-1.40;99.90;;;;;;5129506;27;20039;-80
2024/01/09 11:43:50;;;;;;;3.50;2.43;;;-1.30;99.90;;;;;;5098265;28;20325;-80
2024/01/09 11:46:16;;;;;;;4.33;2.50;;;-1.30;99.90;;;;;;5119944;27;20075;-80
2024/01/09 11:48:43;;;;;;;5.10;2.80;;;-1.30;99.90;;;;;;5096458;27;20626;-80
2024/01/09 11:51:09;;;;;;;4.23;2.60;;;-1.20;99.90;;;;;;5120976;27;20031;-79
2024/01/09 11:53:35;;;;;;;3.50;2.47;;;-1.20;99.90;;;;;;5102793;28;20047;-80
2024/01/09 11:56:01;;;;;;;4.53;2.53;;;-1.10;99.90;;;;;;5119007;27;20467;-79
2024/01/09 11:58:27;;;;;;;4.13;2.73;;;-1.10;99.90;;;;;;5120032;27;20035;-79
2024/01/09 12:00:53;;;;;;;4.00;2.30;;;-1.00;99.90;;;;;;5104174;27;20466;-79
2024/01/09 12:03:19;;;;;;;4.57;2.90;;;-1.00;99.90;;;;;;5120188;27;20034;-80
2024/01/09 12:05:45;;;;;;;3.77;2.10;;;-0.90;99.90;;;;;;5091854;28;20035;-79
2024/01/09 12:08:10;;;;;;;3.73;2.43;;;-0.90;99.90;;;;;;5125514;27;20091;-79
2024/01/09 12:10:43;;;;;;;4.03;2.20;;;-0.80;99.90;;;;;;5124809;27;20121;-80
2024/01/09 12:13:09;;;;;;;4.83;2.33;;;-0.70;99.90;;;;;;5123263;27;20051;-79
2024/01/09 12:15:34;;;;;;;4.20;2.23;;;0.10;99.90;;;;;;5116409;27;20282;-79
2024/01/09 12:18:02;;;;;;;4.27;2.30;;;-0.70;99.90;;;;;;5100571;28;20043;-79
2024/01/09 12:20:27;;;;;;;3.20;2.10;;;-0.70;99.90;;;;;;5106335;27;20429;-78
2024/01/09 12:22:54;;;;;;;5.03;2.53;;;-0.60;99.90;;;;;;5100492;28;20032;-79
2024/01/09 12:25:20;;;;;;;4.23;2.50;;;-0.60;99.90;;;;;;5109309;27;20031;-78
2024/01/09 12:27:46;;;;;;;3.77;2.50;;;-0.60;99.90;;;;;;5103607;27;20047;-78
2024/01/09 12:30:13;;;;;;;4.50;2.43;;;-0.50;99.90;;;;;;5096287;28;20391;-78
2024/01/09 12:32:40;;;;;;;4.63;2.70;;;-0.40;99.90;;;;;;5103370;28;20110;-79
2024/01/09 12:35:07;;;;;;;7.00;2.83;;;-0.40;99.90;;;;;;5099097;27;20035;-78
2024/01/09 12:37:32;;;;;;;4.23;2.50;;;-0.30;99.90;;;;;;5109687;28;20035;-79
2024/01/09 12:40:09;;;;;;;4.30;2.50;;;-0.30;99.90;;;;;;5122023;28;20081;-79
2024/01/09 12:42:34;;;;;;;5.33;2.77;;;-0.20;99.90;;;;;;5102127;28;20491;-79